Time;durP1;ratioP1;P1;durP2;ratioP2;P2;SDS_P1;SDS_P2;PMS_P1;PMS_P2;Temp;Humidity;BMP_temperature;BMP_pressure;BME280_temperature;BME280_humidity;BME280_pressure;Samples;Min_cycle;Max_cycle;Signal;HPM_P1;HPM_P2
2022/05/07 00:00:01;;;;;;;;;;;;;;;18.17;60.04;102048.19;1037964;28;737;-62
2022/05/07 00:00:52;;;;;;;;;;;;;;;18.18;60.11;102049.91;1034058;28;733;-62
2022/05/07 00:01:42;;;;;;;;;;;;;;;18.17;59.36;102053.59;1034542;28;710;-62
2022/05/07 00:02:34;;;;;;;;;;;;;;;18.16;59.94;102050.03;1033313;28;682;-61
2022/05/07 00:03:25;;;;;;;;;;;;;;;18.16;60.11;102052.72;1029660;28;630;-62
2022/05/07 00:04:15;;;;;;;;;;;;;;;18.15;59.24;102052.84;1029041;28;635;-61
2022/05/07 00:05:06;;;;;;;;;;;;;;;18.15;59.63;102053.69;1033163;28;689;-62
2022/05/07 00:05:56;;;;;;;;;;;;;;;18.14;60.02;102057.38;1033355;28;619;-61
2022/05/07 00:06:46;;;;;;;;;;;;;;;18.14;59.46;102043.88;1033241;28;676;-62
2022/05/07 00:07:37;;;;;;;;;;;;;;;18.16;59.86;102054.56;1033198;28;608;-62
2022/05/07 00:08:27;;;;;;;;;;;;;;;18.15;60.23;102056.41;1032860;28;1902;-61
2022/05/07 00:09:18;;;;;;;;;;;;;;;18.15;60.00;102053.69;1029623;28;611;-62
2022/05/07 00:10:09;;;;;;;;;;;;;;;18.14;59.32;102051.97;1028932;28;789;-61
2022/05/07 00:10:59;;;;;;;;;;;;;;;18.14;60.13;102049.28;1033282;28;641;-61
2022/05/07 00:11:50;;;;;;;;;;;;;;;18.14;59.62;102051.97;1029517;28;622;-61
2022/05/07 00:12:40;;;;;;;;;;;;;;;18.13;59.86;102046.69;1028810;28;702;-61
2022/05/07 00:13:31;;;;;;;;;;;;;;;18.12;60.03;102043.13;1033054;28;650;-61
2022/05/07 00:14:21;;;;;;;;;;;;;;;18.12;59.53;102050.38;1033746;28;714;-61
2022/05/07 00:15:12;;;;;;;;;;;;;;;18.12;59.55;102044.97;1033182;28;653;-61
2022/05/07 00:18:21;;;;;;;;;;;;;;;18.09;59.82;102043.41;1032006;28;650;-61
2022/05/07 00:19:11;;;;;;;;;;;;;;;18.10;60.10;102036.13;1033557;28;678;-62
2022/05/07 00:20:01;;;;;;;;;;;;;;;18.11;59.91;102043.25;1033129;28;722;-62
2022/05/07 00:20:52;;;;;;;;;;;;;;;18.10;60.25;102041.53;1033246;28;675;-61
2022/05/07 00:21:42;;;;;;;;;;;;;;;18.08;60.01;102047.06;1033073;28;663;-61
2022/05/07 00:22:33;;;;;;;;;;;;;;;18.09;59.62;102046.09;1033131;28;639;-62
2022/05/07 00:23:23;;;;;;;;;;;;;;;18.09;59.54;102046.09;1033243;28;683;-61
2022/05/07 00:24:13;;;;;;;;;;;;;;;18.09;59.56;102050.63;1033164;28;745;-60
2022/05/07 00:25:04;;;;;;;;;;;;;;;18.09;59.80;102042.53;1032969;28;895;-60
2022/05/07 00:25:54;;;;;;;;;;;;;;;18.08;59.62;102040.81;1033211;28;713;-60
2022/05/07 00:26:45;;;;;;;;;;;;;;;18.08;59.96;102044.38;1033161;28;681;-62
2022/05/07 00:27:35;;;;;;;;;;;;;;;18.06;59.98;102040.94;1033015;28;726;-61
2022/05/07 00:28:26;;;;;;;;;;;;;;;18.08;60.18;102043.53;1033014;28;1914;-61
2022/05/07 00:29:16;;;;;;;;;;;;;;;18.07;59.93;102037.25;1033093;28;647;-61
2022/05/07 00:30:06;;;;;;;;;;;;;;;18.06;59.05;102035.53;1033150;28;710;-62
2022/05/07 00:30:57;;;;;;;;;;;;;;;18.06;59.86;102038.25;1032977;28;630;-62
2022/05/07 00:31:47;;;;;;;;;;;;;;;18.06;60.15;102038.25;1033139;28;669;-62
2022/05/07 00:32:38;;;;;;;;;;;;;;;18.06;59.54;102040.06;1029439;28;705;-62
2022/05/07 00:33:28;;;;;;;;;;;;;;;18.05;59.56;102047.31;1028715;28;702;-62
2022/05/07 00:34:21;;;;;;;;;;;;;;;18.04;59.12;102034.81;1032924;28;706;-61
2022/05/07 00:35:11;;;;;;;;;;;;;;;18.06;59.20;102037.38;1033150;28;619;-61
2022/05/07 00:36:02;;;;;;;;;;;;;;;18.04;59.56;102038.34;1033098;28;637;-61
2022/05/07 00:36:52;;;;;;;;;;;;;;;18.05;59.93;102033.81;1033014;28;674;-61
2022/05/07 00:37:42;;;;;;;;;;;;;;;18.03;59.96;102025.84;1033051;28;639;-61
2022/05/07 00:38:33;;;;;;;;;;;;;;;18.05;59.77;102033.81;1033176;28;619;-62
2022/05/07 00:39:25;;;;;;;;;;;;;;;18.04;59.29;102026.72;1029261;28;577;-61
2022/05/07 00:40:16;;;;;;;;;;;;;;;18.03;58.97;102031.25;1028813;28;634;-62
2022/05/07 00:41:06;;;;;;;;;;;;;;;18.03;60.10;102030.38;1033096;28;691;-61
2022/05/07 00:41:56;;;;;;;;;;;;;;;18.03;59.55;102033.06;1033041;28;709;-62
2022/05/07 00:42:47;;;;;;;;;;;;;;;18.02;59.37;102029.53;1032965;28;631;-62
2022/05/07 00:43:38;;;;;;;;;;;;;;;18.03;59.75;102033.06;1033157;28;674;-61
2022/05/07 00:44:28;;;;;;;;;;;;;;;18.02;59.70;102029.53;1033718;28;721;-61
2022/05/07 00:45:19;;;;;;;;;;;;;;;18.02;60.02;102029.53;1033046;28;691;-62
2022/05/07 00:46:09;;;;;;;;;;;;;;;18.02;59.08;102028.66;1032904;28;643;-61
2022/05/07 00:46:59;;;;;;;;;;;;;;;18.01;59.20;102025.09;1033153;28;638;-61
2022/05/07 00:47:50;;;;;;;;;;;;;;;18.00;59.59;102026.06;1032975;28;718;-62
2022/05/07 00:48:40;;;;;;;;;;;;;;;18.00;59.74;102025.22;1033504;28;1886;-62
2022/05/07 00:49:31;;;;;;;;;;;;;;;17.99;59.31;102027.06;1029414;28;647;-62
2022/05/07 00:51:33;;;;;;;;;;;;;;;18.00;59.01;102019.81;1029606;28;698;-61
2022/05/07 00:52:23;;;;;;;;;;;;;;;17.99;59.01;102026.19;1029087;28;670;-62
2022/05/07 00:53:14;;;;;;;;;;;;;;;17.99;60.20;102015.41;1029130;28;623;-61
2022/05/07 00:54:04;;;;;;;;;;;;;;;17.98;59.06;102019.06;1029011;28;688;-61
2022/05/07 00:54:55;;;;;;;;;;;;;;;17.97;59.53;102020.91;1028764;28;670;-61
2022/05/07 00:55:45;;;;;;;;;;;;;;;17.99;60.11;102018.09;1029090;28;619;-62
2022/05/07 00:56:36;;;;;;;;;;;;;;;17.98;59.68;102016.38;1029137;28;714;-61
2022/05/07 00:57:26;;;;;;;;;;;;;;;17.98;59.89;102011.00;1029467;28;658;-61
2022/05/07 00:58:17;;;;;;;;;;;;;;;17.99;59.33;102012.72;1028738;28;623;-63
2022/05/07 00:59:07;;;;;;;;;;;;;;;17.97;59.15;102015.53;1029384;28;674;-62
2022/05/07 00:59:58;;;;;;;;;;;;;;;17.97;59.60;102011.97;1030228;28;666;-62
2022/05/07 01:00:48;;;;;;;;;;;;;;;17.96;59.79;102018.34;1029011;28;634;-62
2022/05/07 01:01:39;;;;;;;;;;;;;;;17.96;59.88;102012.94;1029154;28;709;-61
2022/05/07 01:02:29;;;;;;;;;;;;;;;17.96;59.54;102013.81;1028945;28;647;-62
2022/05/07 01:03:19;;;;;;;;;;;;;;;17.97;58.90;102014.66;1028472;28;761;-61
2022/05/07 01:04:10;;;;;;;;;;;;;;;17.97;59.11;102009.25;1029112;28;654;-62
2022/05/07 01:05:00;;;;;;;;;;;;;;;17.95;59.83;102013.91;1029132;28;674;-61
2022/05/07 01:05:51;;;;;;;;;;;;;;;17.95;59.33;102005.81;1028551;28;619;-62
2022/05/07 01:06:41;;;;;;;;;;;;;;;17.95;59.61;102020.16;1029276;28;771;-62
2022/05/07 01:07:32;;;;;;;;;;;;;;;17.95;59.58;102008.53;1029231;28;647;-62
2022/05/07 01:08:25;;;;;;;;;;;;;;;17.95;59.79;102012.06;1029742;28;670;-63
2022/05/07 01:09:15;;;;;;;;;;;;;;;17.95;59.17;102009.38;1028780;28;659;-61
2022/05/07 01:10:06;;;;;;;;;;;;;;;17.95;59.49;102011.22;1032864;28;655;-61
2022/05/07 01:10:56;;;;;;;;;;;;;;;17.94;59.12;102010.34;1034094;28;578;-61
2022/05/07 01:11:46;;;;;;;;;;;;;;;17.94;59.32;102010.34;1029512;28;691;-62
2022/05/07 01:12:37;;;;;;;;;;;;;;;17.95;59.80;102005.81;1029230;28;634;-62
2022/05/07 01:13:27;;;;;;;;;;;;;;;17.94;59.74;102001.41;1029166;28;669;-61
2022/05/07 01:14:18;;;;;;;;;;;;;;;17.93;60.10;102005.94;1029057;28;923;-62
2022/05/07 01:15:08;;;;;;;;;;;;;;;17.93;59.47;102005.09;1028324;28;631;-62
2022/05/07 01:15:59;;;;;;;;;;;;;;;17.92;59.61;102006.06;1029718;28;638;-62
2022/05/07 01:16:49;;;;;;;;;;;;;;;17.92;59.45;102006.91;1029037;28;705;-61
2022/05/07 01:17:39;;;;;;;;;;;;;;;17.91;59.91;101994.44;1028862;28;1206;-61
2022/05/07 01:18:30;;;;;;;;;;;;;;;17.93;59.74;102007.78;1029091;28;685;-62
2022/05/07 01:19:20;;;;;;;;;;;;;;;17.91;59.27;101999.84;1029080;28;686;-61
2022/05/07 01:20:12;;;;;;;;;;;;;;;17.92;58.86;101997.97;1028927;28;733;-61
2022/05/07 01:21:03;;;;;;;;;;;;;;;17.92;59.83;101995.28;1028530;28;670;-62
2022/05/07 01:21:53;;;;;;;;;;;;;;;17.93;59.23;102005.09;1029041;28;647;-61
2022/05/07 01:22:44;;;;;;;;;;;;;;;17.92;60.03;102006.06;1029180;28;718;-61
2022/05/07 01:23:34;;;;;;;;;;;;;;;17.92;58.93;102003.34;1029591;28;626;-62
2022/05/07 01:24:24;;;;;;;;;;;;;;;17.92;59.91;102000.66;1029050;28;694;-61
2022/05/07 01:25:15;;;;;;;;;;;;;;;17.91;59.82;101998.97;1029179;28;631;-61
2022/05/07 01:26:05;;;;;;;;;;;;;;;17.90;58.92;101994.56;1028334;28;670;-61
2022/05/07 01:26:56;;;;;;;;;;;;;;;17.90;59.23;101999.94;1028901;28;642;-61
2022/05/07 01:27:46;;;;;;;;;;;;;;;17.90;59.35;102002.66;1029020;28;630;-61
2022/05/07 01:28:37;;;;;;;;;;;;;;;17.90;59.68;101994.56;1028356;28;1907;-61
2022/05/07 01:29:27;;;;;;;;;;;;;;;17.90;59.07;101991.84;1029524;28;748;-62
2022/05/07 01:30:18;;;;;;;;;;;;;;;17.89;59.39;101995.53;1029010;28;635;-62
2022/05/07 01:31:08;;;;;;;;;;;;;;;17.89;59.46;101995.53;1028970;28;751;-61
2022/05/07 01:31:58;;;;;;;;;;;;;;;17.89;59.44;101999.09;1028494;28;702;-61
2022/05/07 01:32:49;;;;;;;;;;;;;;;17.90;59.98;101991.84;1028996;28;634;-62
2022/05/07 01:33:40;;;;;;;;;;;;;;;17.90;59.18;101991.84;1028514;28;658;-61
2022/05/07 01:34:30;;;;;;;;;;;;;;;17.88;59.44;101993.81;1029000;28;713;-61
2022/05/07 01:35:21;;;;;;;;;;;;;;;17.87;59.25;101992.09;1027903;28;694;-61
2022/05/07 01:36:13;;;;;;;;;;;;;;;17.89;59.19;102000.94;1028938;28;662;-61
2022/05/07 01:37:04;;;;;;;;;;;;;;;17.87;59.00;101995.66;1028975;28;710;-61
2022/05/07 01:37:54;;;;;;;;;;;;;;;17.87;59.29;101997.47;1029004;28;698;-61
2022/05/07 01:38:45;;;;;;;;;;;;;;;17.87;59.66;102002.88;1029022;28;868;-61
2022/05/07 01:39:35;;;;;;;;;;;;;;;17.86;59.55;102001.16;1028762;28;791;-61
2022/05/07 01:40:26;;;;;;;;;;;;;;;17.86;59.25;102006.56;1029602;28;646;-61
2022/05/07 01:41:16;;;;;;;;;;;;;;;17.86;59.43;102002.03;1030110;28;618;-61
2022/05/07 01:42:07;;;;;;;;;;;;;;;17.86;58.84;102001.16;1028841;28;808;-63
2022/05/07 01:42:57;;;;;;;;;;;;;;;17.86;58.97;102002.03;1028988;28;654;-62
2022/05/07 01:43:47;;;;;;;;;;;;;;;17.85;59.98;101994.91;1029153;28;666;-62
2022/05/07 01:44:38;;;;;;;;;;;;;;;17.86;58.90;101990.38;1028851;28;617;-61
2022/05/07 01:45:28;;;;;;;;;;;;;;;17.87;59.86;101997.47;1028473;28;654;-61
2022/05/07 01:48:37;;;;;;;;;;;;;;;17.86;58.78;101991.22;1028281;28;1962;-62
2022/05/07 01:49:27;;;;;;;;;;;;;;;17.86;59.71;101991.22;1028981;28;682;-61
2022/05/07 01:50:18;;;;;;;;;;;;;;;17.86;59.79;101987.69;1028342;28;806;-61
2022/05/07 01:51:08;;;;;;;;;;;;;;;17.86;59.41;101995.75;1029512;28;662;-61
2022/05/07 01:51:58;;;;;;;;;;;;;;;17.84;59.70;101992.31;1028973;28;643;-62
2022/05/07 01:52:49;;;;;;;;;;;;;;;17.85;58.97;101999.44;1028523;28;627;-62
2022/05/07 01:53:39;;;;;;;;;;;;;;;17.85;59.42;101988.66;1029042;28;687;-62
2022/05/07 01:54:30;;;;;;;;;;;;;;;17.85;59.60;101996.75;1029011;28;725;-62
2022/05/07 01:55:20;;;;;;;;;;;;;;;17.84;59.20;101990.50;1028924;28;705;-62
2022/05/07 01:56:11;;;;;;;;;;;;;;;17.84;59.32;101993.19;1028415;28;987;-62
2022/05/07 01:57:01;;;;;;;;;;;;;;;17.83;59.48;101991.47;1028896;28;705;-62
2022/05/07 01:57:52;;;;;;;;;;;;;;;17.82;58.62;101984.34;1028462;28;702;-62
2022/05/07 01:58:42;;;;;;;;;;;;;;;17.83;59.02;101985.22;1029527;28;651;-61
2022/05/07 01:59:33;;;;;;;;;;;;;;;17.83;59.06;101983.38;1028466;28;635;-62
2022/05/07 02:00:23;;;;;;;;;;;;;;;17.84;59.64;101981.53;1028903;28;677;-62
2022/05/07 02:01:13;;;;;;;;;;;;;;;17.83;59.25;101983.38;1028975;28;647;-61
2022/05/07 02:02:04;;;;;;;;;;;;;;;17.82;58.87;101987.03;1028897;28;686;-62
2022/05/07 02:02:55;;;;;;;;;;;;;;;17.81;58.64;101984.47;1029081;28;665;-61
2022/05/07 02:03:46;;;;;;;;;;;;;;;17.81;58.54;101987.16;1029076;28;639;-61
2022/05/07 02:04:36;;;;;;;;;;;;;;;17.82;59.53;101986.19;1029464;28;639;-61
2022/05/07 02:05:27;;;;;;;;;;;;;;;17.81;59.24;101985.31;1028231;28;647;-61
2022/05/07 02:06:17;;;;;;;;;;;;;;;17.80;59.02;101988.13;1028960;28;682;-62
2022/05/07 02:07:08;;;;;;;;;;;;;;;17.80;59.13;101986.31;1029583;28;634;-62
2022/05/07 02:07:58;;;;;;;;;;;;;;;17.80;59.30;101991.69;1029739;28;655;-62
2022/05/07 02:08:48;;;;;;;;;;;;;;;17.80;58.72;101990.84;1029729;28;1940;-62
2022/05/07 02:09:39;;;;;;;;;;;;;;;17.79;59.18;101987.28;1029730;28;627;-62
2022/05/07 02:10:29;;;;;;;;;;;;;;;17.80;59.01;101985.44;1029144;28;656;-62
2022/05/07 02:11:20;;;;;;;;;;;;;;;17.81;59.03;101984.47;1029616;28;683;-62
2022/05/07 02:12:10;;;;;;;;;;;;;;;17.79;58.96;101983.72;1029671;28;698;-62
2022/05/07 02:13:01;;;;;;;;;;;;;;;17.80;58.92;101985.44;1029761;28;659;-62
2022/05/07 02:13:52;;;;;;;;;;;;;;;17.79;59.65;101981.03;1030349;28;627;-62
2022/05/07 02:14:42;;;;;;;;;;;;;;;17.80;59.19;101985.44;1029709;28;626;-62
2022/05/07 02:15:33;;;;;;;;;;;;;;;17.80;59.04;101980.06;1029066;28;737;-62
2022/05/07 02:16:23;;;;;;;;;;;;;;;17.79;58.86;101989.97;1029666;28;745;-62
2022/05/07 02:17:13;;;;;;;;;;;;;;;17.78;58.86;101985.56;1029717;28;662;-62
2022/05/07 02:18:04;;;;;;;;;;;;;;;17.78;59.49;101988.25;1029643;28;642;-62
2022/05/07 02:18:54;;;;;;;;;;;;;;;17.78;58.69;101987.41;1029307;28;628;-62
2022/05/07 02:19:45;;;;;;;;;;;;;;;17.76;58.71;101987.50;1025482;29;683;-61
2022/05/07 02:20:35;;;;;;;;;;;;;;;17.77;59.61;101986.53;1027110;28;674;-62
2022/05/07 02:21:25;;;;;;;;;;;;;;;17.76;59.13;101979.41;1026219;29;631;-62
2022/05/07 02:22:16;;;;;;;;;;;;;;;17.77;59.35;101986.53;1031792;28;708;-61
2022/05/07 02:23:06;;;;;;;;;;;;;;;17.79;59.00;101989.13;1026611;29;824;-61
2022/05/07 02:23:57;;;;;;;;;;;;;;;17.78;59.54;101987.41;1026126;28;654;-62
2022/05/07 02:24:47;;;;;;;;;;;;;;;17.77;58.55;101991.94;1028066;28;616;-62
2022/05/07 02:25:37;;;;;;;;;;;;;;;17.76;58.74;101983.94;1029969;28;636;-62
2022/05/07 02:26:28;;;;;;;;;;;;;;;17.75;58.86;101980.41;1029044;28;694;-62
2022/05/07 02:27:18;;;;;;;;;;;;;;;17.76;59.05;101994.72;1030632;28;709;-61
2022/05/07 02:28:09;;;;;;;;;;;;;;;17.74;58.74;101984.06;1029607;28;714;-62
2022/05/07 02:28:59;;;;;;;;;;;;;;;17.74;59.13;101988.59;1029739;28;651;-62
2022/05/07 02:29:50;;;;;;;;;;;;;;;17.74;59.06;101988.59;1029778;28;695;-62
2022/05/07 02:30:40;;;;;;;;;;;;;;;17.73;58.67;101989.59;1029633;28;753;-64
2022/05/07 02:31:30;;;;;;;;;;;;;;;17.73;58.79;101978.81;1029623;28;833;-62
2022/05/07 02:32:21;;;;;;;;;;;;;;;17.73;59.25;101985.06;1029575;28;635;-62
2022/05/07 02:33:11;;;;;;;;;;;;;;;17.73;58.59;101984.22;1029235;28;635;-62
2022/05/07 02:34:02;;;;;;;;;;;;;;;17.72;59.07;101977.97;1029647;28;662;-62
2022/05/07 02:34:52;;;;;;;;;;;;;;;17.73;59.25;101981.53;1025335;28;647;-62
2022/05/07 02:35:43;;;;;;;;;;;;;;;17.72;58.91;101977.09;1024399;29;691;-62
2022/05/07 02:36:33;;;;;;;;;;;;;;;17.71;58.43;101976.25;1029562;28;639;-61
2022/05/07 02:37:23;;;;;;;;;;;;;;;17.71;59.27;101978.06;1028997;28;674;-62
2022/05/07 02:38:14;;;;;;;;;;;;;;;17.72;59.08;101971.72;1029103;28;730;-62
2022/05/07 02:39:04;;;;;;;;;;;;;;;17.71;59.17;101970.84;1029604;28;646;-62
2022/05/07 02:39:55;;;;;;;;;;;;;;;17.72;59.28;101977.97;1030323;28;658;-62
2022/05/07 02:43:04;;;;;;;;;;;;;;;17.73;59.50;101979.69;1029112;28;667;-62
2022/05/07 02:43:54;;;;;;;;;;;;;;;17.72;59.22;101974.41;1029697;28;686;-62
2022/05/07 02:44:44;;;;;;;;;;;;;;;17.72;58.97;101977.09;1029569;28;643;-61
2022/05/07 02:45:35;;;;;;;;;;;;;;;17.71;58.98;101981.63;1029555;28;627;-62
2022/05/07 02:46:25;;;;;;;;;;;;;;;17.72;59.35;101974.41;1029534;28;639;-62
2022/05/07 02:47:16;;;;;;;;;;;;;;;17.71;59.09;101972.69;1029090;28;620;-61
2022/05/07 02:48:06;;;;;;;;;;;;;;;17.69;58.49;101979.06;1029539;28;689;-62
2022/05/07 02:48:57;;;;;;;;;;;;;;;17.71;58.89;101972.69;1029500;28;1994;-62
2022/05/07 02:49:47;;;;;;;;;;;;;;;17.71;58.95;101975.38;1029545;28;698;-61
2022/05/07 02:50:38;;;;;;;;;;;;;;;17.70;59.16;101985.31;1030555;28;1214;-62
2022/05/07 02:51:28;;;;;;;;;;;;;;;17.70;58.46;101979.91;1034184;28;705;-62
2022/05/07 02:52:18;;;;;;;;;;;;;;;17.69;59.03;101976.34;1033523;28;654;-62
2022/05/07 02:53:09;;;;;;;;;;;;;;;17.70;59.10;101979.91;1033506;28;712;-61
2022/05/07 02:53:59;;;;;;;;;;;;;;;17.69;58.77;101970.09;1033728;28;631;-62
2022/05/07 02:54:50;;;;;;;;;;;;;;;17.71;58.42;101980.78;1033537;28;655;-62
2022/05/07 02:55:40;;;;;;;;;;;;;;;17.68;58.76;101980.03;1033627;28;635;-62
2022/05/07 02:56:31;;;;;;;;;;;;;;;17.71;59.04;101975.38;1033542;28;702;-62
2022/05/07 02:57:21;;;;;;;;;;;;;;;17.68;58.52;101974.63;1033489;28;738;-62
2022/05/07 02:58:12;;;;;;;;;;;;;;;17.69;58.63;101983.59;1033498;28;627;-62
2022/05/07 02:59:02;;;;;;;;;;;;;;;17.68;58.88;101977.34;1029814;28;635;-62
2022/05/07 02:59:53;;;;;;;;;;;;;;;17.68;58.88;101980.03;1029224;28;721;-61
2022/05/07 03:00:43;;;;;;;;;;;;;;;17.68;58.60;101974.63;1029221;28;705;-62
2022/05/07 03:01:34;;;;;;;;;;;;;;;17.67;58.92;101978.31;1029645;28;717;-61
2022/05/07 03:02:24;;;;;;;;;;;;;;;17.67;59.23;101969.34;1033558;28;647;-62
2022/05/07 03:03:14;;;;;;;;;;;;;;;17.67;58.64;101977.44;1033492;28;728;-61
2022/05/07 03:04:05;;;;;;;;;;;;;;;17.66;58.63;101976.59;1033536;28;716;-61
2022/05/07 03:04:55;;;;;;;;;;;;;;;17.66;58.73;101973.03;1033609;28;701;-62
2022/05/07 03:05:46;;;;;;;;;;;;;;;17.65;58.94;101974.88;1033395;28;649;-61
2022/05/07 03:06:36;;;;;;;;;;;;;;;17.66;59.15;101981.13;1033442;28;654;-61
2022/05/07 03:07:27;;;;;;;;;;;;;;;17.66;59.26;101984.66;1033501;28;706;-62
2022/05/07 03:08:18;;;;;;;;;;;;;;;17.67;59.05;101980.13;1033558;28;623;-61
2022/05/07 03:09:08;;;;;;;;;;;;;;;17.67;58.57;101988.22;1033538;28;678;-61
2022/05/07 03:09:58;;;;;;;;;;;;;;;17.66;58.51;101981.97;1033550;28;650;-61
2022/05/07 03:10:49;;;;;;;;;;;;;;;17.66;58.91;101983.81;1033474;28;646;-61
2022/05/07 03:11:40;;;;;;;;;;;;;;;17.65;58.73;101982.94;1033529;28;708;-61
2022/05/07 03:12:30;;;;;;;;;;;;;;;17.65;58.67;101988.34;1033436;28;630;-61
2022/05/07 03:13:21;;;;;;;;;;;;;;;17.66;59.32;101990.06;1033456;28;631;-61
2022/05/07 03:14:12;;;;;;;;;;;;;;;17.66;58.57;101986.50;1033385;28;626;-62
2022/05/07 03:15:02;;;;;;;;;;;;;;;17.65;58.36;101988.34;1033496;28;682;-62
2022/05/07 03:15:53;;;;;;;;;;;;;;;17.65;58.79;101991.03;1033500;28;642;-62
2022/05/07 03:16:46;;;;;;;;;;;;;;;17.64;59.18;101981.22;1033055;28;654;-62
2022/05/07 03:17:37;;;;;;;;;;;;;;;17.64;59.17;101988.47;1033732;28;1135;-61
2022/05/07 03:18:28;;;;;;;;;;;;;;;17.65;58.79;101982.09;1033047;28;654;-62
2022/05/07 03:19:18;;;;;;;;;;;;;;;17.63;59.21;101984.88;1033467;28;690;-63
2022/05/07 03:20:11;;;;;;;;;;;;;;;17.63;58.64;101986.69;1033404;28;650;-61
2022/05/07 03:21:01;;;;;;;;;;;;;;;17.62;58.27;101983.16;1033558;28;717;-62
2022/05/07 03:21:52;;;;;;;;;;;;;;;17.62;58.67;101980.44;1034053;28;658;-62
2022/05/07 03:22:42;;;;;;;;;;;;;;;17.63;58.74;101984.88;1033122;28;693;-62
2022/05/07 03:23:33;;;;;;;;;;;;;;;17.62;58.67;101980.44;1033032;28;713;-61
2022/05/07 03:24:23;;;;;;;;;;;;;;;17.62;58.34;101982.28;1033333;28;834;-62
2022/05/07 03:25:13;;;;;;;;;;;;;;;17.61;58.81;101980.56;1029720;28;687;-62
2022/05/07 03:26:05;;;;;;;;;;;;;;;17.60;58.72;101989.63;1029202;28;807;-62
2022/05/07 03:26:55;;;;;;;;;;;;;;;17.61;58.62;101980.56;1033532;28;740;-61
2022/05/07 03:27:46;;;;;;;;;;;;;;;17.61;59.05;101984.13;1033430;28;651;-62
2022/05/07 03:28:36;;;;;;;;;;;;;;;17.60;58.80;101987.78;1033910;28;1977;-62
2022/05/07 03:29:26;;;;;;;;;;;;;;;17.61;58.69;101985.97;1033380;28;526;-61
2022/05/07 03:30:17;;;;;;;;;;;;;;;17.60;58.59;101987.78;1033469;28;670;-62
2022/05/07 03:31:07;;;;;;;;;;;;;;;17.60;59.04;101989.63;1032971;28;678;-61
2022/05/07 03:31:58;;;;;;;;;;;;;;;17.60;58.55;101981.53;1034485;28;725;-62
2022/05/07 03:32:48;;;;;;;;;;;;;;;17.59;58.66;101988.78;1034690;28;709;-62
2022/05/07 03:33:39;;;;;;;;;;;;;;;17.60;59.22;101985.09;1038333;28;693;-62
2022/05/07 03:34:29;;;;;;;;;;;;;;;17.60;58.57;101990.50;1038322;28;737;-61
2022/05/07 03:35:19;;;;;;;;;;;;;;;17.60;58.73;101984.25;1034977;28;806;-62
2022/05/07 03:36:11;;;;;;;;;;;;;;;17.59;58.65;101988.78;1029750;28;630;-61
2022/05/07 03:37:01;;;;;;;;;;;;;;;17.59;58.16;101986.06;1029194;28;642;-62
2022/05/07 03:37:51;;;;;;;;;;;;;;;17.59;58.81;101990.59;1033466;28;638;-62
2022/05/07 03:38:42;;;;;;;;;;;;;;;17.58;58.79;101986.19;1029587;28;662;-62
2022/05/07 03:39:32;;;;;;;;;;;;;;;17.58;58.00;101984.34;1029141;28;658;-61
2022/05/07 03:40:23;;;;;;;;;;;;;;;17.57;58.95;101990.72;1032481;28;669;-61
2022/05/07 03:41:14;;;;;;;;;;;;;;;17.58;58.50;101989.75;1029600;28;738;-61
2022/05/07 03:42:05;;;;;;;;;;;;;;;17.57;58.24;101992.56;1029190;28;686;-61
2022/05/07 03:42:55;;;;;;;;;;;;;;;17.56;58.33;101989.00;1033346;28;690;-61
2022/05/07 03:43:46;;;;;;;;;;;;;;;17.57;58.40;101990.72;1033500;28;682;-61
2022/05/07 03:44:37;;;;;;;;;;;;;;;17.58;58.99;101991.56;1033802;28;694;-61
2022/05/07 03:45:28;;;;;;;;;;;;;;;17.57;59.08;101995.25;1033392;28;717;-61
2022/05/07 03:46:19;;;;;;;;;;;;;;;17.56;58.58;101991.69;1033536;28;686;-61
2022/05/07 03:47:09;;;;;;;;;;;;;;;17.57;59.12;101997.94;1033355;28;713;-61
2022/05/07 03:47:59;;;;;;;;;;;;;;;17.56;58.48;101991.69;1034006;28;643;-61
2022/05/07 03:48:50;;;;;;;;;;;;;;;17.55;58.60;101990.00;1031038;28;1940;-61
2022/05/07 03:49:40;;;;;;;;;;;;;;;17.56;58.75;101993.53;1031159;28;678;-63
2022/05/07 03:50:31;;;;;;;;;;;;;;;17.55;58.26;102003.47;1034090;28;1273;-61
2022/05/07 03:51:21;;;;;;;;;;;;;;;17.54;58.78;101998.19;1035368;28;642;-61
2022/05/07 03:53:30;;;;;;;;;;;;;;;17.53;59.07;101994.66;1032953;28;749;-62
2022/05/07 03:54:20;;;;;;;;;;;;;;;17.53;58.60;101991.94;1035058;28;642;-61
2022/05/07 03:55:11;;;;;;;;;;;;;;;17.52;58.22;101998.31;1035525;28;808;-61
2022/05/07 03:56:01;;;;;;;;;;;;;;;17.53;58.26;102001.88;1034337;28;630;-61
2022/05/07 03:56:51;;;;;;;;;;;;;;;17.53;58.53;101994.66;1035270;28;750;-60
2022/05/07 03:57:42;;;;;;;;;;;;;;;17.53;58.77;102002.72;1035292;28;729;-61
2022/05/07 03:58:32;;;;;;;;;;;;;;;17.52;59.26;101995.63;1037390;28;1020;-60
2022/05/07 03:59:23;;;;;;;;;;;;;;;17.53;58.83;102001.88;1031179;28;654;-62
2022/05/07 04:00:13;;;;;;;;;;;;;;;17.53;58.48;102000.03;1030760;28;693;-62
2022/05/07 04:01:03;;;;;;;;;;;;;;;17.52;58.39;102001.00;1034850;28;650;-61
2022/05/07 04:01:54;;;;;;;;;;;;;;;17.52;58.30;101995.63;1035383;28;788;-62
2022/05/07 04:02:44;;;;;;;;;;;;;;;17.53;58.92;102002.72;1030892;28;660;-62
2022/05/07 04:03:35;;;;;;;;;;;;;;;17.52;58.39;102006.41;1030742;28;705;-61
2022/05/07 04:04:25;;;;;;;;;;;;;;;17.52;58.16;102001.00;1034608;28;650;-61
2022/05/07 04:05:16;;;;;;;;;;;;;;;17.52;58.48;102006.41;1030419;28;717;-62
2022/05/07 04:06:06;;;;;;;;;;;;;;;17.50;58.92;102000.25;1030963;28;681;-61
2022/05/07 04:06:58;;;;;;;;;;;;;;;17.51;58.79;102003.81;1034184;28;670;-62
2022/05/07 04:07:49;;;;;;;;;;;;;;;17.51;59.22;102007.38;1035177;28;642;-61
2022/05/07 04:08:39;;;;;;;;;;;;;;;17.51;58.55;102006.50;1034990;28;1949;-61
2022/05/07 04:09:30;;;;;;;;;;;;;;;17.51;59.19;102003.81;1035006;28;653;-61
2022/05/07 04:10:20;;;;;;;;;;;;;;;17.51;58.93;102009.22;1035136;28;615;-61
2022/05/07 04:11:11;;;;;;;;;;;;;;;17.51;58.82;102007.38;1035048;28;657;-61
2022/05/07 04:12:01;;;;;;;;;;;;;;;17.50;58.74;102011.03;1034092;28;631;-62
2022/05/07 04:12:52;;;;;;;;;;;;;;;17.50;58.84;102010.19;1035122;28;685;-62
2022/05/07 04:13:42;;;;;;;;;;;;;;;17.50;58.69;102002.09;1033934;28;619;-63
2022/05/07 04:14:32;;;;;;;;;;;;;;;17.50;58.32;102015.56;1035131;28;622;-61
2022/05/07 04:15:23;;;;;;;;;;;;;;;17.50;58.74;102002.97;1033939;28;709;-62
2022/05/07 04:16:13;;;;;;;;;;;;;;;17.50;58.46;102002.09;1035257;28;611;-61
2022/05/07 04:17:04;;;;;;;;;;;;;;;17.49;59.03;102001.25;1035063;28;689;-63
2022/05/07 04:17:54;;;;;;;;;;;;;;;17.49;58.65;102003.94;1034775;28;1210;-61
2022/05/07 04:18:45;;;;;;;;;;;;;;;17.50;58.56;102000.25;1037457;28;730;-62
2022/05/07 04:19:36;;;;;;;;;;;;;;;17.48;59.09;102007.59;1038313;28;642;-63
2022/05/07 04:20:26;;;;;;;;;;;;;;;17.49;58.72;102013.84;1034511;28;669;-61
2022/05/07 04:21:17;;;;;;;;;;;;;;;17.49;58.35;102008.47;1034337;28;649;-61
2022/05/07 04:22:07;;;;;;;;;;;;;;;17.48;58.94;102004.91;1034681;28;732;-61
2022/05/07 04:22:57;;;;;;;;;;;;;;;17.48;58.37;102002.22;1034611;28;641;-61
2022/05/07 04:23:48;;;;;;;;;;;;;;;17.50;58.93;102002.09;1032071;28;647;-63
2022/05/07 04:24:38;;;;;;;;;;;;;;;17.48;59.22;102013.00;1030313;28;694;-62
2022/05/07 04:25:29;;;;;;;;;;;;;;;17.48;59.06;102012.13;1030845;28;654;-61
2022/05/07 04:26:19;;;;;;;;;;;;;;;17.48;58.69;102004.91;1034371;28;658;-63
2022/05/07 04:27:10;;;;;;;;;;;;;;;17.48;58.79;102010.28;1034694;28;634;-62
2022/05/07 04:28:00;;;;;;;;;;;;;;;17.48;59.00;102013.00;1029701;28;637;-62
2022/05/07 04:28:51;;;;;;;;;;;;;;;17.49;58.43;102009.31;1030059;28;1910;-62
2022/05/07 04:29:41;;;;;;;;;;;;;;;17.46;58.87;102009.56;1034231;28;623;-63
2022/05/07 04:30:32;;;;;;;;;;;;;;;17.46;58.53;102017.63;1034134;28;626;-62
2022/05/07 04:31:22;;;;;;;;;;;;;;;17.47;59.04;102013.09;1034355;28;729;-63
2022/05/07 04:32:13;;;;;;;;;;;;;;;17.47;58.75;102018.50;1034756;28;709;-63
2022/05/07 04:33:03;;;;;;;;;;;;;;;17.46;58.77;102014.94;1033849;28;737;-63
2022/05/07 04:33:53;;;;;;;;;;;;;;;17.46;58.46;102012.25;1035351;28;682;-63
2022/05/07 04:34:44;;;;;;;;;;;;;;;17.45;58.54;102015.91;1032918;28;710;-62